sensor_id;sensor_type;location;lat;lon;timestamp;P1;durP1;ratioP1;P2;durP2;ratioP2
71106;SDS011;58763;47.982;11.516;2023-07-13T00:01:13;5.55;;;2.90;;
71106;SDS011;58763;47.982;11.516;2023-07-13T00:03:39;6.22;;;2.90;;
71106;SDS011;58763;47.982;11.516;2023-07-13T00:06:06;5.47;;;2.72;;
71106;SDS011;58763;47.982;11.516;2023-07-13T00:08:32;7.32;;;2.83;;
71106;SDS011;58763;47.982;11.516;2023-07-13T00:10:58;4.65;;;2.25;;
71106;SDS011;58763;47.982;11.516;2023-07-13T00:13:25;5.95;;;2.53;;
71106;SDS011;58763;47.982;11.516;2023-07-13T00:15:50;4.60;;;2.67;;
71106;SDS011;58763;47.982;11.516;2023-07-13T00:18:16;5.53;;;2.40;;
71106;SDS011;58763;47.982;11.516;2023-07-13T00:20:42;4.43;;;2.20;;
71106;SDS011;58763;47.982;11.516;2023-07-13T00:23:08;5.50;;;2.58;;
71106;SDS011;58763;47.982;11.516;2023-07-13T00:25:33;6.28;;;2.15;;
71106;SDS011;58763;47.982;11.516;2023-07-13T00:28:00;3.78;;;2.08;;
71106;SDS011;58763;47.982;11.516;2023-07-13T00:30:25;4.82;;;2.33;;
71106;SDS011;58763;47.982;11.516;2023-07-13T00:32:51;6.05;;;2.30;;
71106;SDS011;58763;47.982;11.516;2023-07-13T00:35:16;4.60;;;2.17;;
71106;SDS011;58763;47.982;11.516;2023-07-13T00:37:42;3.95;;;2.05;;
71106;SDS011;58763;47.982;11.516;2023-07-13T00:40:08;4.65;;;1.98;;
71106;SDS011;58763;47.982;11.516;2023-07-13T00:42:36;4.80;;;1.90;;
71106;SDS011;58763;47.982;11.516;2023-07-13T00:47:27;5.25;;;2.38;;
71106;SDS011;58763;47.982;11.516;2023-07-13T00:49:53;5.00;;;2.28;;
71106;SDS011;58763;47.982;11.516;2023-07-13T00:52:18;5.28;;;2.35;;
71106;SDS011;58763;47.982;11.516;2023-07-13T00:54:45;4.03;;;2.15;;
71106;SDS011;58763;47.982;11.516;2023-07-13T00:57:12;4.97;;;2.13;;
71106;SDS011;58763;47.982;11.516;2023-07-13T00:59:47;4.75;;;2.00;;
71106;SDS011;58763;47.982;11.516;2023-07-13T01:02:16;4.50;;;2.10;;
71106;SDS011;58763;47.982;11.516;2023-07-13T01:04:41;4.38;;;2.00;;
71106;SDS011;58763;47.982;11.516;2023-07-13T01:07:09;4.93;;;2.08;;
71106;SDS011;58763;47.982;11.516;2023-07-13T01:09:35;5.53;;;2.10;;
71106;SDS011;58763;47.982;11.516;2023-07-13T01:12:01;3.92;;;2.10;;
71106;SDS011;58763;47.982;11.516;2023-07-13T01:14:28;4.88;;;2.00;;
71106;SDS011;58763;47.982;11.516;2023-07-13T01:16:53;6.45;;;2.50;;
71106;SDS011;58763;47.982;11.516;2023-07-13T01:19:29;6.65;;;2.22;;
71106;SDS011;58763;47.982;11.516;2023-07-13T01:22:02;4.20;;;2.20;;
71106;SDS011;58763;47.982;11.516;2023-07-13T01:24:35;5.00;;;2.40;;
71106;SDS011;58763;47.982;11.516;2023-07-13T01:27:02;4.35;;;2.10;;
71106;SDS011;58763;47.982;11.516;2023-07-13T01:29:28;6.40;;;2.17;;
71106;SDS011;58763;47.982;11.516;2023-07-13T01:31:55;8.95;;;2.10;;
71106;SDS011;58763;47.982;11.516;2023-07-13T01:34:20;6.45;;;2.40;;
71106;SDS011;58763;47.982;11.516;2023-07-13T01:36:45;4.85;;;2.10;;
71106;SDS011;58763;47.982;11.516;2023-07-13T01:39:11;4.57;;;2.03;;
71106;SDS011;58763;47.982;11.516;2023-07-13T01:41:36;3.85;;;1.88;;
71106;SDS011;58763;47.982;11.516;2023-07-13T01:44:02;4.57;;;2.08;;
71106;SDS011;58763;47.982;11.516;2023-07-13T01:46:27;5.47;;;2.00;;
71106;SDS011;58763;47.982;11.516;2023-07-13T01:48:53;6.10;;;2.42;;
71106;SDS011;58763;47.982;11.516;2023-07-13T01:51:18;4.60;;;1.90;;
71106;SDS011;58763;47.982;11.516;2023-07-13T01:53:44;5.68;;;2.08;;
71106;SDS011;58763;47.982;11.516;2023-07-13T01:56:10;5.03;;;2.00;;
71106;SDS011;58763;47.982;11.516;2023-07-13T01:58:36;5.05;;;1.83;;
71106;SDS011;58763;47.982;11.516;2023-07-13T02:01:02;4.30;;;1.88;;
71106;SDS011;58763;47.982;11.516;2023-07-13T02:03:27;4.78;;;1.88;;
71106;SDS011;58763;47.982;11.516;2023-07-13T02:05:52;5.43;;;2.17;;
71106;SDS011;58763;47.982;11.516;2023-07-13T02:08:18;4.18;;;1.67;;
71106;SDS011;58763;47.982;11.516;2023-07-13T02:10:43;5.57;;;2.25;;
71106;SDS011;58763;47.982;11.516;2023-07-13T02:13:08;4.75;;;1.90;;
71106;SDS011;58763;47.982;11.516;2023-07-13T02:15:34;4.70;;;1.98;;
71106;SDS011;58763;47.982;11.516;2023-07-13T02:17:59;4.28;;;1.77;;
71106;SDS011;58763;47.982;11.516;2023-07-13T02:20:25;5.32;;;1.90;;
71106;SDS011;58763;47.982;11.516;2023-07-13T02:22:51;4.38;;;1.92;;
71106;SDS011;58763;47.982;11.516;2023-07-13T02:25:17;6.22;;;2.10;;
71106;SDS011;58763;47.982;11.516;2023-07-13T02:27:42;5.63;;;2.78;;
71106;SDS011;58763;47.982;11.516;2023-07-13T02:30:08;4.38;;;2.13;;
71106;SDS011;58763;47.982;11.516;2023-07-13T02:32:33;5.25;;;2.22;;
71106;SDS011;58763;47.982;11.516;2023-07-13T02:35:00;6.15;;;2.45;;
71106;SDS011;58763;47.982;11.516;2023-07-13T02:37:26;6.93;;;2.40;;
71106;SDS011;58763;47.982;11.516;2023-07-13T02:39:51;4.88;;;2.20;;
71106;SDS011;58763;47.982;11.516;2023-07-13T02:42:16;4.85;;;2.00;;
71106;SDS011;58763;47.982;11.516;2023-07-13T02:44:42;4.45;;;1.95;;
71106;SDS011;58763;47.982;11.516;2023-07-13T02:47:07;5.30;;;1.95;;
71106;SDS011;58763;47.982;11.516;2023-07-13T02:49:33;7.30;;;2.20;;
71106;SDS011;58763;47.982;11.516;2023-07-13T02:51:58;6.80;;;2.13;;
71106;SDS011;58763;47.982;11.516;2023-07-13T02:54:23;7.07;;;2.50;;
71106;SDS011;58763;47.982;11.516;2023-07-13T02:56:49;5.25;;;2.70;;
71106;SDS011;58763;47.982;11.516;2023-07-13T02:59:14;6.95;;;2.20;;
71106;SDS011;58763;47.982;11.516;2023-07-13T03:01:40;5.95;;;2.28;;
71106;SDS011;58763;47.982;11.516;2023-07-13T03:04:06;6.82;;;2.30;;
71106;SDS011;58763;47.982;11.516;2023-07-13T03:06:32;6.95;;;2.88;;
71106;SDS011;58763;47.982;11.516;2023-07-13T03:08:58;7.32;;;2.80;;
71106;SDS011;58763;47.982;11.516;2023-07-13T03:11:25;5.57;;;2.53;;
71106;SDS011;58763;47.982;11.516;2023-07-13T03:13:51;5.03;;;2.65;;
71106;SDS011;58763;47.982;11.516;2023-07-13T03:16:17;6.90;;;2.80;;
71106;SDS011;58763;47.982;11.516;2023-07-13T03:18:43;6.95;;;3.40;;
71106;SDS011;58763;47.982;11.516;2023-07-13T03:21:09;7.75;;;2.97;;
71106;SDS011;58763;47.982;11.516;2023-07-13T03:23:35;5.65;;;2.33;;
71106;SDS011;58763;47.982;11.516;2023-07-13T03:26:01;5.95;;;2.65;;
71106;SDS011;58763;47.982;11.516;2023-07-13T03:28:35;4.75;;;2.30;;
71106;SDS011;58763;47.982;11.516;2023-07-13T03:31:05;5.15;;;2.05;;
71106;SDS011;58763;47.982;11.516;2023-07-13T03:33:33;4.55;;;2.13;;
71106;SDS011;58763;47.982;11.516;2023-07-13T03:35:59;3.80;;;2.00;;
71106;SDS011;58763;47.982;11.516;2023-07-13T03:38:25;5.30;;;2.33;;
71106;SDS011;58763;47.982;11.516;2023-07-13T03:40:51;6.07;;;2.55;;
71106;SDS011;58763;47.982;11.516;2023-07-13T03:43:17;7.95;;;2.50;;
71106;SDS011;58763;47.982;11.516;2023-07-13T03:45:46;5.00;;;2.25;;
71106;SDS011;58763;47.982;11.516;2023-07-13T03:48:12;4.70;;;2.40;;
71106;SDS011;58763;47.982;11.516;2023-07-13T03:50:38;5.18;;;2.40;;
71106;SDS011;58763;47.982;11.516;2023-07-13T03:53:03;5.47;;;2.30;;
71106;SDS011;58763;47.982;11.516;2023-07-13T03:55:29;5.40;;;2.17;;
71106;SDS011;58763;47.982;11.516;2023-07-13T03:57:59;5.50;;;2.25;;
71106;SDS011;58763;47.982;11.516;2023-07-13T04:00:26;4.93;;;2.20;;
71106;SDS011;58763;47.982;11.516;2023-07-13T04:02:52;5.70;;;2.00;;
71106;SDS011;58763;47.982;11.516;2023-07-13T04:05:17;5.03;;;1.80;;
71106;SDS011;58763;47.982;11.516;2023-07-13T04:07:43;4.32;;;2.08;;
71106;SDS011;58763;47.982;11.516;2023-07-13T04:10:09;4.18;;;1.85;;
71106;SDS011;58763;47.982;11.516;2023-07-13T04:12:34;3.60;;;1.95;;
71106;SDS011;58763;47.982;11.516;2023-07-13T04:15:00;3.83;;;2.00;;
71106;SDS011;58763;47.982;11.516;2023-07-13T04:17:25;5.90;;;1.92;;
71106;SDS011;58763;47.982;11.516;2023-07-13T04:19:51;5.65;;;1.90;;
71106;SDS011;58763;47.982;11.516;2023-07-13T04:22:16;3.92;;;1.95;;
71106;SDS011;58763;47.982;11.516;2023-07-13T04:24:42;5.85;;;2.10;;
71106;SDS011;58763;47.982;11.516;2023-07-13T04:27:07;4.70;;;2.03;;
71106;SDS011;58763;47.982;11.516;2023-07-13T04:29:32;5.90;;;2.38;;
71106;SDS011;58763;47.982;11.516;2023-07-13T04:31:58;4.65;;;2.00;;
71106;SDS011;58763;47.982;11.516;2023-07-13T04:34:23;4.38;;;2.13;;
71106;SDS011;58763;47.982;11.516;2023-07-13T04:36:49;4.30;;;1.80;;
71106;SDS011;58763;47.982;11.516;2023-07-13T04:39:15;6.15;;;2.08;;
71106;SDS011;58763;47.982;11.516;2023-07-13T04:41:41;4.05;;;1.95;;
71106;SDS011;58763;47.982;11.516;2023-07-13T04:44:06;3.90;;;1.83;;
71106;SDS011;58763;47.982;11.516;2023-07-13T04:46:32;4.32;;;1.77;;
71106;SDS011;58763;47.982;11.516;2023-07-13T04:48:57;5.82;;;2.30;;
71106;SDS011;58763;47.982;11.516;2023-07-13T04:51:23;4.95;;;1.98;;
71106;SDS011;58763;47.982;11.516;2023-07-13T04:53:50;4.57;;;1.77;;
71106;SDS011;58763;47.982;11.516;2023-07-13T04:56:15;4.50;;;2.08;;
71106;SDS011;58763;47.982;11.516;2023-07-13T04:58:41;3.50;;;1.80;;
71106;SDS011;58763;47.982;11.516;2023-07-13T05:01:07;4.88;;;2.10;;
71106;SDS011;58763;47.982;11.516;2023-07-13T05:03:34;5.15;;;1.85;;
71106;SDS011;58763;47.982;11.516;2023-07-13T05:06:00;3.63;;;1.60;;
71106;SDS011;58763;47.982;11.516;2023-07-13T05:08:28;4.70;;;1.90;;
71106;SDS011;58763;47.982;11.516;2023-07-13T05:10:53;4.57;;;1.60;;
71106;SDS011;58763;47.982;11.516;2023-07-13T05:13:19;5.03;;;2.00;;
71106;SDS011;58763;47.982;11.516;2023-07-13T05:15:45;4.25;;;1.65;;
71106;SDS011;58763;47.982;11.516;2023-07-13T05:18:11;4.40;;;1.83;;
71106;SDS011;58763;47.982;11.516;2023-07-13T05:20:36;5.25;;;1.77;;
71106;SDS011;58763;47.982;11.516;2023-07-13T05:23:01;3.85;;;2.00;;
71106;SDS011;58763;47.982;11.516;2023-07-13T05:25:27;3.78;;;1.83;;
71106;SDS011;58763;47.982;11.516;2023-07-13T05:27:52;6.30;;;2.00;;
71106;SDS011;58763;47.982;11.516;2023-07-13T05:30:18;4.15;;;1.88;;
71106;SDS011;58763;47.982;11.516;2023-07-13T05:32:43;4.25;;;2.10;;
71106;SDS011;58763;47.982;11.516;2023-07-13T05:35:09;4.05;;;2.03;;
71106;SDS011;58763;47.982;11.516;2023-07-13T05:37:34;4.40;;;2.20;;
71106;SDS011;58763;47.982;11.516;2023-07-13T05:40:00;6.97;;;2.72;;
71106;SDS011;58763;47.982;11.516;2023-07-13T05:42:25;6.10;;;2.50;;
71106;SDS011;58763;47.982;11.516;2023-07-13T05:44:51;4.70;;;2.50;;
71106;SDS011;58763;47.982;11.516;2023-07-13T05:47:16;5.57;;;2.53;;
71106;SDS011;58763;47.982;11.516;2023-07-13T05:49:42;4.57;;;2.17;;
71106;SDS011;58763;47.982;11.516;2023-07-13T05:52:07;5.18;;;2.40;;
71106;SDS011;58763;47.982;11.516;2023-07-13T05:54:33;4.90;;;2.58;;
71106;SDS011;58763;47.982;11.516;2023-07-13T05:56:58;4.88;;;2.60;;
71106;SDS011;58763;47.982;11.516;2023-07-13T05:59:24;5.30;;;2.65;;
71106;SDS011;58763;47.982;11.516;2023-07-13T06:01:50;5.38;;;2.83;;
71106;SDS011;58763;47.982;11.516;2023-07-13T06:04:17;5.68;;;2.40;;
71106;SDS011;58763;47.982;11.516;2023-07-13T06:06:43;5.22;;;2.80;;
71106;SDS011;58763;47.982;11.516;2023-07-13T06:09:08;4.95;;;2.35;;
71106;SDS011;58763;47.982;11.516;2023-07-13T06:11:34;5.07;;;2.67;;
71106;SDS011;58763;47.982;11.516;2023-07-13T06:14:00;4.82;;;2.83;;
71106;SDS011;58763;47.982;11.516;2023-07-13T06:16:25;4.97;;;2.30;;
71106;SDS011;58763;47.982;11.516;2023-07-13T06:18:51;5.90;;;2.63;;
71106;SDS011;58763;47.982;11.516;2023-07-13T06:21:18;4.85;;;2.60;;
71106;SDS011;58763;47.982;11.516;2023-07-13T06:23:45;5.47;;;2.33;;
71106;SDS011;58763;47.982;11.516;2023-07-13T06:26:12;5.72;;;2.22;;
71106;SDS011;58763;47.982;11.516;2023-07-13T06:28:38;4.82;;;2.10;;
71106;SDS011;58763;47.982;11.516;2023-07-13T06:31:08;4.40;;;2.30;;
71106;SDS011;58763;47.982;11.516;2023-07-13T06:33:35;4.22;;;2.38;;
71106;SDS011;58763;47.982;11.516;2023-07-13T06:36:02;4.97;;;2.22;;
71106;SDS011;58763;47.982;11.516;2023-07-13T06:38:29;4.60;;;2.20;;
71106;SDS011;58763;47.982;11.516;2023-07-13T06:40:54;6.03;;;2.42;;
71106;SDS011;58763;47.982;11.516;2023-07-13T06:43:20;7.05;;;2.28;;
71106;SDS011;58763;47.982;11.516;2023-07-13T06:45:46;6.63;;;2.45;;
71106;SDS011;58763;47.982;11.516;2023-07-13T06:48:14;6.28;;;2.63;;
71106;SDS011;58763;47.982;11.516;2023-07-13T06:50:41;4.88;;;2.38;;
71106;SDS011;58763;47.982;11.516;2023-07-13T06:53:07;4.90;;;2.50;;
71106;SDS011;58763;47.982;11.516;2023-07-13T06:55:32;6.25;;;2.70;;
71106;SDS011;58763;47.982;11.516;2023-07-13T06:57:58;5.32;;;2.72;;
71106;SDS011;58763;47.982;11.516;2023-07-13T07:00:23;4.60;;;2.38;;
71106;SDS011;58763;47.982;11.516;2023-07-13T07:02:48;6.25;;;2.72;;
71106;SDS011;58763;47.982;11.516;2023-07-13T07:05:14;6.22;;;2.47;;
71106;SDS011;58763;47.982;11.516;2023-07-13T07:07:40;6.55;;;2.75;;
71106;SDS011;58763;47.982;11.516;2023-07-13T07:10:05;5.78;;;2.60;;
71106;SDS011;58763;47.982;11.516;2023-07-13T07:12:31;6.65;;;2.97;;
71106;SDS011;58763;47.982;11.516;2023-07-13T07:14:56;8.10;;;2.60;;
71106;SDS011;58763;47.982;11.516;2023-07-13T07:17:22;5.40;;;2.65;;
71106;SDS011;58763;47.982;11.516;2023-07-13T07:19:47;5.55;;;3.03;;
71106;SDS011;58763;47.982;11.516;2023-07-13T07:22:13;6.18;;;2.85;;
71106;SDS011;58763;47.982;11.516;2023-07-13T07:24:38;5.63;;;2.22;;
71106;SDS011;58763;47.982;11.516;2023-07-13T07:27:04;6.47;;;2.90;;
71106;SDS011;58763;47.982;11.516;2023-07-13T07:29:29;5.90;;;2.58;;
71106;SDS011;58763;47.982;11.516;2023-07-13T07:31:55;7.13;;;2.38;;
71106;SDS011;58763;47.982;11.516;2023-07-13T07:34:20;5.88;;;2.63;;
71106;SDS011;58763;47.982;11.516;2023-07-13T07:36:45;5.18;;;2.50;;
71106;SDS011;58763;47.982;11.516;2023-07-13T07:39:11;5.32;;;2.70;;
71106;SDS011;58763;47.982;11.516;2023-07-13T07:41:37;5.32;;;2.50;;
71106;SDS011;58763;47.982;11.516;2023-07-13T07:44:03;4.32;;;2.13;;
71106;SDS011;58763;47.982;11.516;2023-07-13T07:46:29;4.25;;;2.30;;
71106;SDS011;58763;47.982;11.516;2023-07-13T07:48:55;5.10;;;2.50;;
71106;SDS011;58763;47.982;11.516;2023-07-13T07:51:21;9.25;;;2.50;;
71106;SDS011;58763;47.982;11.516;2023-07-13T07:53:47;6.00;;;2.17;;
71106;SDS011;58763;47.982;11.516;2023-07-13T07:56:13;7.63;;;2.35;;
71106;SDS011;58763;47.982;11.516;2023-07-13T07:58:41;7.95;;;2.50;;
71106;SDS011;58763;47.982;11.516;2023-07-13T08:01:07;6.88;;;2.47;;
71106;SDS011;58763;47.982;11.516;2023-07-13T08:03:32;3.80;;;2.40;;
71106;SDS011;58763;47.982;11.516;2023-07-13T08:05:58;6.07;;;2.35;;
71106;SDS011;58763;47.982;11.516;2023-07-13T08:08:24;6.53;;;2.28;;
71106;SDS011;58763;47.982;11.516;2023-07-13T08:10:50;6.13;;;2.53;;
71106;SDS011;58763;47.982;11.516;2023-07-13T08:13:15;6.75;;;2.30;;
71106;SDS011;58763;47.982;11.516;2023-07-13T08:15:40;3.83;;;2.03;;
71106;SDS011;58763;47.982;11.516;2023-07-13T08:18:06;5.70;;;2.20;;
71106;SDS011;58763;47.982;11.516;2023-07-13T08:20:36;5.88;;;2.17;;
71106;SDS011;58763;47.982;11.516;2023-07-13T08:23:02;5.55;;;2.08;;
71106;SDS011;58763;47.982;11.516;2023-07-13T08:25:27;4.72;;;1.92;;
71106;SDS011;58763;47.982;11.516;2023-07-13T08:27:53;4.13;;;1.90;;
71106;SDS011;58763;47.982;11.516;2023-07-13T08:30:19;5.68;;;1.88;;
71106;SDS011;58763;47.982;11.516;2023-07-13T08:32:44;6.07;;;2.30;;
71106;SDS011;58763;47.982;11.516;2023-07-13T08:35:09;5.22;;;2.17;;
71106;SDS011;58763;47.982;11.516;2023-07-13T08:37:35;4.13;;;2.10;;
71106;SDS011;58763;47.982;11.516;2023-07-13T08:40:00;5.40;;;2.28;;
71106;SDS011;58763;47.982;11.516;2023-07-13T08:45:08;4.65;;;2.30;;
71106;SDS011;58763;47.982;11.516;2023-07-13T08:47:47;5.43;;;2.00;;
71106;SDS011;58763;47.982;11.516;2023-07-13T08:50:19;6.63;;;2.13;;
71106;SDS011;58763;47.982;11.516;2023-07-13T08:52:49;4.63;;;2.10;;
71106;SDS011;58763;47.982;11.516;2023-07-13T08:55:16;4.85;;;2.47;;
71106;SDS011;58763;47.982;11.516;2023-07-13T08:57:46;4.57;;;2.00;;
71106;SDS011;58763;47.982;11.516;2023-07-13T09:00:15;6.28;;;2.03;;
71106;SDS011;58763;47.982;11.516;2023-07-13T09:02:56;6.18;;;2.08;;
71106;SDS011;58763;47.982;11.516;2023-07-13T09:11:02;3.58;;;1.60;;
71106;SDS011;58763;47.982;11.516;2023-07-13T09:16:38;5.63;;;2.08;;
71106;SDS011;58763;47.982;11.516;2023-07-13T09:19:05;4.68;;;1.90;;
71106;SDS011;58763;47.982;11.516;2023-07-13T09:21:37;5.38;;;1.92;;
71106;SDS011;58763;47.982;11.516;2023-07-13T09:26:54;3.58;;;1.50;;
71106;SDS011;58763;47.982;11.516;2023-07-13T09:29:28;4.97;;;2.08;;
71106;SDS011;58763;47.982;11.516;2023-07-13T09:32:04;6.72;;;1.75;;
71106;SDS011;58763;47.982;11.516;2023-07-13T09:34:32;5.40;;;1.70;;
71106;SDS011;58763;47.982;11.516;2023-07-13T09:36:58;5.28;;;2.10;;
71106;SDS011;58763;47.982;11.516;2023-07-13T09:39:38;7.95;;;1.92;;
71106;SDS011;58763;47.982;11.516;2023-07-13T09:42:16;4.00;;;1.90;;
71106;SDS011;58763;47.982;11.516;2023-07-13T09:44:53;7.10;;;1.80;;
71106;SDS011;58763;47.982;11.516;2023-07-13T09:49:55;5.03;;;1.98;;
71106;SDS011;58763;47.982;11.516;2023-07-13T09:52:21;4.00;;;1.98;;
71106;SDS011;58763;47.982;11.516;2023-07-13T09:54:48;5.32;;;1.90;;
71106;SDS011;58763;47.982;11.516;2023-07-13T09:57:19;6.28;;;2.35;;
71106;SDS011;58763;47.982;11.516;2023-07-13T09:59:49;4.63;;;1.77;;
71106;SDS011;58763;47.982;11.516;2023-07-13T10:04:56;5.22;;;2.08;;
71106;SDS011;58763;47.982;11.516;2023-07-13T10:07:24;5.68;;;2.40;;
71106;SDS011;58763;47.982;11.516;2023-07-13T10:09:53;4.22;;;2.08;;
71106;SDS011;58763;47.982;11.516;2023-07-13T10:12:19;5.65;;;1.83;;
71106;SDS011;58763;47.982;11.516;2023-07-13T10:14:45;4.28;;;2.20;;
71106;SDS011;58763;47.982;11.516;2023-07-13T10:17:13;5.18;;;2.28;;
71106;SDS011;58763;47.982;11.516;2023-07-13T10:19:39;4.78;;;2.22;;
71106;SDS011;58763;47.982;11.516;2023-07-13T10:22:25;5.93;;;2.30;;
71106;SDS011;58763;47.982;11.516;2023-07-13T10:24:57;4.78;;;2.17;;
71106;SDS011;58763;47.982;11.516;2023-07-13T10:27:26;4.53;;;1.92;;
71106;SDS011;58763;47.982;11.516;2023-07-13T10:30:03;5.53;;;1.95;;
71106;SDS011;58763;47.982;11.516;2023-07-13T10:32:37;6.75;;;2.00;;
71106;SDS011;58763;47.982;11.516;2023-07-13T10:35:03;4.43;;;2.05;;
71106;SDS011;58763;47.982;11.516;2023-07-13T10:37:35;4.05;;;2.13;;
71106;SDS011;58763;47.982;11.516;2023-07-13T10:40:11;7.38;;;2.00;;
71106;SDS011;58763;47.982;11.516;2023-07-13T10:42:45;5.28;;;2.63;;
71106;SDS011;58763;47.982;11.516;2023-07-13T10:45:15;4.40;;;1.90;;
71106;SDS011;58763;47.982;11.516;2023-07-13T10:47:43;6.57;;;2.42;;
71106;SDS011;58763;47.982;11.516;2023-07-13T10:50:20;5.60;;;2.38;;
71106;SDS011;58763;47.982;11.516;2023-07-13T10:52:49;4.45;;;1.92;;
71106;SDS011;58763;47.982;11.516;2023-07-13T10:58:33;6.15;;;1.52;;
71106;SDS011;58763;47.982;11.516;2023-07-13T11:01:06;4.57;;;1.58;;
71106;SDS011;58763;47.982;11.516;2023-07-13T11:09:03;3.90;;;1.38;;
71106;SDS011;58763;47.982;11.516;2023-07-13T11:25:37;5.10;;;1.83;;
71106;SDS011;58763;47.982;11.516;2023-07-13T11:28:05;4.72;;;1.35;;
71106;SDS011;58763;47.982;11.516;2023-07-13T11:36:13;5.80;;;1.60;;
71106;SDS011;58763;47.982;11.516;2023-07-13T11:39:04;5.20;;;1.83;;
71106;SDS011;58763;47.982;11.516;2023-07-13T11:41:43;5.25;;;1.73;;
71106;SDS011;58763;47.982;11.516;2023-07-13T11:44:14;4.22;;;1.25;;
71106;SDS011;58763;47.982;11.516;2023-07-13T11:46:46;3.42;;;1.33;;
71106;SDS011;58763;47.982;11.516;2023-07-13T11:49:20;2.53;;;1.13;;
71106;SDS011;58763;47.982;11.516;2023-07-13T11:51:48;4.53;;;1.67;;
71106;SDS011;58763;47.982;11.516;2023-07-13T11:54:24;4.55;;;1.50;;
71106;SDS011;58763;47.982;11.516;2023-07-13T11:56:55;6.18;;;1.80;;
71106;SDS011;58763;47.982;11.516;2023-07-13T11:59:23;4.07;;;1.58;;
71106;SDS011;58763;47.982;11.516;2023-07-13T12:01:51;3.88;;;1.48;;
71106;SDS011;58763;47.982;11.516;2023-07-13T12:04:20;5.05;;;1.63;;
71106;SDS011;58763;47.982;11.516;2023-07-13T12:06:54;3.60;;;1.35;;
71106;SDS011;58763;47.982;11.516;2023-07-13T12:09:20;4.05;;;1.60;;
71106;SDS011;58763;47.982;11.516;2023-07-13T12:11:50;4.33;;;1.60;;
71106;SDS011;58763;47.982;11.516;2023-07-13T12:14:17;3.17;;;1.38;;
71106;SDS011;58763;47.982;11.516;2023-07-13T12:16:44;4.43;;;1.65;;
71106;SDS011;58763;47.982;11.516;2023-07-13T12:19:19;4.78;;;1.42;;
71106;SDS011;58763;47.982;11.516;2023-07-13T12:21:52;4.97;;;1.38;;
71106;SDS011;58763;47.982;11.516;2023-07-13T12:24:21;3.72;;;1.40;;
71106;SDS011;58763;47.982;11.516;2023-07-13T12:29:25;4.03;;;1.40;;
71106;SDS011;58763;47.982;11.516;2023-07-13T12:31:51;3.65;;;1.55;;
71106;SDS011;58763;47.982;11.516;2023-07-13T12:34:21;5.85;;;1.70;;
71106;SDS011;58763;47.982;11.516;2023-07-13T12:39:19;5.60;;;1.60;;
71106;SDS011;58763;47.982;11.516;2023-07-13T12:44:40;5.65;;;1.48;;
71106;SDS011;58763;47.982;11.516;2023-07-13T12:47:09;3.45;;;1.55;;
71106;SDS011;58763;47.982;11.516;2023-07-13T12:49:40;3.55;;;1.10;;
71106;SDS011;58763;47.982;11.516;2023-07-13T12:52:13;2.85;;;1.02;;
71106;SDS011;58763;47.982;11.516;2023-07-13T12:54:41;3.75;;;1.38;;
71106;SDS011;58763;47.982;11.516;2023-07-13T12:57:08;3.83;;;0.90;;
71106;SDS011;58763;47.982;11.516;2023-07-13T12:59:41;3.38;;;1.15;;
71106;SDS011;58763;47.982;11.516;2023-07-13T13:02:21;3.28;;;1.30;;
71106;SDS011;58763;47.982;11.516;2023-07-13T13:04:53;3.50;;;0.80;;
71106;SDS011;58763;47.982;11.516;2023-07-13T13:07:20;3.17;;;1.30;;
71106;SDS011;58763;47.982;11.516;2023-07-13T13:09:47;3.47;;;1.10;;
71106;SDS011;58763;47.982;11.516;2023-07-13T13:12:13;4.15;;;1.33;;
71106;SDS011;58763;47.982;11.516;2023-07-13T13:14:39;3.63;;;1.27;;
71106;SDS011;58763;47.982;11.516;2023-07-13T13:17:07;2.90;;;1.10;;
71106;SDS011;58763;47.982;11.516;2023-07-13T13:19:49;4.25;;;1.40;;
71106;SDS011;58763;47.982;11.516;2023-07-13T13:22:15;3.85;;;1.10;;
71106;SDS011;58763;47.982;11.516;2023-07-13T13:24:40;2.90;;;1.20;;
71106;SDS011;58763;47.982;11.516;2023-07-13T13:27:09;5.35;;;1.40;;
71106;SDS011;58763;47.982;11.516;2023-07-13T13:29:40;3.05;;;1.30;;
71106;SDS011;58763;47.982;11.516;2023-07-13T13:32:09;3.58;;;1.30;;
71106;SDS011;58763;47.982;11.516;2023-07-13T13:34:37;3.45;;;0.90;;
71106;SDS011;58763;47.982;11.516;2023-07-13T13:37:04;5.25;;;1.33;;
71106;SDS011;58763;47.982;11.516;2023-07-13T13:39:45;4.53;;;1.20;;
71106;SDS011;58763;47.982;11.516;2023-07-13T13:42:12;2.85;;;0.90;;
71106;SDS011;58763;47.982;11.516;2023-07-13T13:44:38;4.93;;;1.23;;
71106;SDS011;58763;47.982;11.516;2023-07-13T13:47:03;3.72;;;1.02;;
71106;SDS011;58763;47.982;11.516;2023-07-13T13:49:29;3.60;;;1.38;;
71106;SDS011;58763;47.982;11.516;2023-07-13T13:51:55;4.43;;;1.10;;
71106;SDS011;58763;47.982;11.516;2023-07-13T13:54:22;3.50;;;0.93;;
71106;SDS011;58763;47.982;11.516;2023-07-13T13:56:49;3.42;;;1.20;;
71106;SDS011;58763;47.982;11.516;2023-07-13T13:59:15;2.95;;;1.25;;
71106;SDS011;58763;47.982;11.516;2023-07-13T14:01:41;2.50;;;1.05;;
71106;SDS011;58763;47.982;11.516;2023-07-13T14:04:13;3.03;;;1.00;;
71106;SDS011;58763;47.982;11.516;2023-07-13T14:06:43;4.10;;;1.30;;
71106;SDS011;58763;47.982;11.516;2023-07-13T14:09:10;5.07;;;1.63;;
71106;SDS011;58763;47.982;11.516;2023-07-13T14:11:38;3.75;;;1.30;;
71106;SDS011;58763;47.982;11.516;2023-07-13T14:14:09;4.97;;;1.40;;
71106;SDS011;58763;47.982;11.516;2023-07-13T14:16:39;4.22;;;1.30;;
71106;SDS011;58763;47.982;11.516;2023-07-13T14:19:08;3.88;;;1.23;;
71106;SDS011;58763;47.982;11.516;2023-07-13T14:21:36;3.78;;;1.15;;
71106;SDS011;58763;47.982;11.516;2023-07-13T14:24:03;7.70;;;1.45;;
71106;SDS011;58763;47.982;11.516;2023-07-13T14:26:29;4.28;;;1.45;;
71106;SDS011;58763;47.982;11.516;2023-07-13T14:29:00;4.60;;;1.35;;
71106;SDS011;58763;47.982;11.516;2023-07-13T14:31:26;4.20;;;1.45;;
71106;SDS011;58763;47.982;11.516;2023-07-13T14:33:54;2.92;;;1.10;;
71106;SDS011;58763;47.982;11.516;2023-07-13T14:36:25;4.25;;;1.30;;
71106;SDS011;58763;47.982;11.516;2023-07-13T14:38:54;4.78;;;1.27;;
71106;SDS011;58763;47.982;11.516;2023-07-13T14:41:20;3.42;;;1.05;;
71106;SDS011;58763;47.982;11.516;2023-07-13T14:43:46;2.80;;;0.90;;
71106;SDS011;58763;47.982;11.516;2023-07-13T14:49:03;3.95;;;1.48;;
71106;SDS011;58763;47.982;11.516;2023-07-13T14:51:31;6.55;;;1.67;;
71106;SDS011;58763;47.982;11.516;2023-07-13T14:54:00;3.80;;;1.30;;
71106;SDS011;58763;47.982;11.516;2023-07-13T14:56:27;5.77;;;1.33;;
71106;SDS011;58763;47.982;11.516;2023-07-13T14:58:53;3.72;;;1.10;;
71106;SDS011;58763;47.982;11.516;2023-07-13T15:01:18;4.68;;;1.50;;
71106;SDS011;58763;47.982;11.516;2023-07-13T15:03:47;2.80;;;1.30;;
71106;SDS011;58763;47.982;11.516;2023-07-13T15:06:14;4.30;;;1.30;;
71106;SDS011;58763;47.982;11.516;2023-07-13T15:08:39;3.75;;;1.02;;
71106;SDS011;58763;47.982;11.516;2023-07-13T15:11:06;3.67;;;1.20;;
71106;SDS011;58763;47.982;11.516;2023-07-13T15:13:32;3.03;;;1.17;;
71106;SDS011;58763;47.982;11.516;2023-07-13T15:15:58;3.53;;;1.23;;
71106;SDS011;58763;47.982;11.516;2023-07-13T15:18:24;4.07;;;1.05;;
71106;SDS011;58763;47.982;11.516;2023-07-13T15:20:53;3.30;;;1.10;;
71106;SDS011;58763;47.982;11.516;2023-07-13T15:23:20;4.53;;;1.20;;
71106;SDS011;58763;47.982;11.516;2023-07-13T15:25:47;3.03;;;1.10;;
71106;SDS011;58763;47.982;11.516;2023-07-13T15:28:13;2.15;;;0.90;;
71106;SDS011;58763;47.982;11.516;2023-07-13T15:30:43;2.42;;;1.00;;
71106;SDS011;58763;47.982;11.516;2023-07-13T15:33:15;2.33;;;1.00;;
71106;SDS011;58763;47.982;11.516;2023-07-13T15:35:49;2.80;;;1.10;;